sensor_id;sensor_type;location;lat;lon;timestamp;pressure;altitude;pressure_sealevel;temperature;humidity
4410;BME280;2218;51.408;7.208;2023-04-01T00:00:34;97532.69;;;19.64;46.73
4410;BME280;2218;51.408;7.208;2023-04-01T00:03:01;97531.03;;;19.63;46.47
4410;BME280;2218;51.408;7.208;2023-04-01T00:05:29;97534.50;;;19.63;46.71
4410;BME280;2218;51.408;7.208;2023-04-01T00:07:56;97524.94;;;19.62;46.64
4410;BME280;2218;51.408;7.208;2023-04-01T00:10:23;97524.13;;;19.62;46.66
4410;BME280;2218;51.408;7.208;2023-04-01T00:12:50;97522.47;;;19.61;46.82
4410;BME280;2218;51.408;7.208;2023-04-01T00:15:17;97527.75;;;19.61;46.69
4410;BME280;2218;51.408;7.208;2023-04-01T00:17:44;97520.84;;;19.60;46.71
4410;BME280;2218;51.408;7.208;2023-04-01T00:20:12;97526.09;;;19.60;46.85
4410;BME280;2218;51.408;7.208;2023-04-01T00:22:41;97526.94;;;19.60;46.77
4410;BME280;2218;51.408;7.208;2023-04-01T00:25:09;97526.94;;;19.60;46.38
4410;BME280;2218;51.408;7.208;2023-04-01T00:27:36;97526.09;;;19.60;46.84
4410;BME280;2218;51.408;7.208;2023-04-01T00:30:05;97526.09;;;19.60;46.82
4410;BME280;2218;51.408;7.208;2023-04-01T00:32:33;97516.50;;;19.59;46.91
4410;BME280;2218;51.408;7.208;2023-04-01T00:35:00;97522.75;;;19.58;46.81
4410;BME280;2218;51.408;7.208;2023-04-01T00:37:27;97513.03;;;19.58;46.85
4410;BME280;2218;51.408;7.208;2023-04-01T00:39:56;97514.03;;;19.57;46.67
4410;BME280;2218;51.408;7.208;2023-04-01T00:42:23;97517.50;;;19.58;46.88
4410;BME280;2218;51.408;7.208;2023-04-01T00:44:54;97517.50;;;19.58;46.86
4410;BME280;2218;51.408;7.208;2023-04-01T00:47:22;97518.47;;;19.57;46.62
4410;BME280;2218;51.408;7.208;2023-04-01T00:49:53;97517.66;;;19.56;46.71
4410;BME280;2218;51.408;7.208;2023-04-01T00:52:25;97512.41;;;19.56;46.74
4410;BME280;2218;51.408;7.208;2023-04-01T00:54:58;97511.56;;;19.56;46.87
4410;BME280;2218;51.408;7.208;2023-04-01T00:57:31;97508.94;;;19.56;46.75
4410;BME280;2218;51.408;7.208;2023-04-01T01:00:06;97507.28;;;19.55;47.03
4410;BME280;2218;51.408;7.208;2023-04-01T01:02:38;97503.00;;;19.54;46.83
4410;BME280;2218;51.408;7.208;2023-04-01T01:05:06;97506.47;;;19.54;46.71
4410;BME280;2218;51.408;7.208;2023-04-01T01:07:40;97505.63;;;19.54;46.89
4410;BME280;2218;51.408;7.208;2023-04-01T01:10:19;97509.25;;;19.53;46.85
4410;BME280;2218;51.408;7.208;2023-04-01T01:13:04;97502.16;;;19.53;46.87
4410;BME280;2218;51.408;7.208;2023-04-01T01:15:41;97507.59;;;19.52;46.83
4410;BME280;2218;51.408;7.208;2023-04-01T01:18:19;97508.44;;;19.52;46.87
4410;BME280;2218;51.408;7.208;2023-04-01T01:21:33;97511.22;;;19.51;46.72
4410;BME280;2218;51.408;7.208;2023-04-01T01:24:34;97511.22;;;19.51;47.08
4410;BME280;2218;51.408;7.208;2023-04-01T01:27:10;97500.69;;;19.51;46.91
4410;BME280;2218;51.408;7.208;2023-04-01T01:30:15;97501.50;;;19.51;47.05
4410;BME280;2218;51.408;7.208;2023-04-01T01:33:16;97501.69;;;19.50;46.92
4410;BME280;2218;51.408;7.208;2023-04-01T01:35:51;97498.22;;;19.49;46.91
4410;BME280;2218;51.408;7.208;2023-04-01T01:38:24;97500.00;;;19.49;46.86
4410;BME280;2218;51.408;7.208;2023-04-01T01:41:01;97499.06;;;19.50;46.88
4410;BME280;2218;51.408;7.208;2023-04-01T01:43:33;97492.09;;;19.49;47.09
4410;BME280;2218;51.408;7.208;2023-04-01T01:46:07;97501.00;;;19.48;46.73
4410;BME280;2218;51.408;7.208;2023-04-01T01:48:37;97494.91;;;19.47;47.09
4410;BME280;2218;51.408;7.208;2023-04-01T01:51:07;97495.75;;;19.48;47.00
4410;BME280;2218;51.408;7.208;2023-04-01T01:53:34;97503.81;;;19.46;47.03
4410;BME280;2218;51.408;7.208;2023-04-01T01:56:03;97493.28;;;19.46;46.92
4410;BME280;2218;51.408;7.208;2023-04-01T01:58:39;97503.81;;;19.46;47.00
4410;BME280;2218;51.408;7.208;2023-04-01T02:01:12;97508.25;;;19.46;47.06
4410;BME280;2218;51.408;7.208;2023-04-01T02:03:42;97500.34;;;19.46;47.08
4410;BME280;2218;51.408;7.208;2023-04-01T02:06:18;97493.44;;;19.45;47.14
4410;BME280;2218;51.408;7.208;2023-04-01T02:08:50;97495.22;;;19.44;47.14
4410;BME280;2218;51.408;7.208;2023-04-01T02:11:22;97503.00;;;19.46;47.09
4410;BME280;2218;51.408;7.208;2023-04-01T02:13:55;97489.81;;;19.46;46.93
4410;BME280;2218;51.408;7.208;2023-04-01T02:16:31;97489.81;;;19.46;47.18
4410;BME280;2218;51.408;7.208;2023-04-01T02:19:03;97489.81;;;19.46;47.17
4410;BME280;2218;51.408;7.208;2023-04-01T02:21:36;97494.91;;;19.47;46.84
4410;BME280;2218;51.408;7.208;2023-04-01T02:24:08;97492.09;;;19.49;47.01
4410;BME280;2218;51.408;7.208;2023-04-01T02:26:37;97493.78;;;19.50;46.77
4410;BME280;2218;51.408;7.208;2023-04-01T02:29:06;97487.69;;;19.49;46.95
4410;BME280;2218;51.408;7.208;2023-04-01T02:31:35;97494.59;;;19.50;46.71
4410;BME280;2218;51.408;7.208;2023-04-01T02:34:03;97488.34;;;19.51;46.93
4410;BME280;2218;51.408;7.208;2023-04-01T02:36:31;97479.63;;;19.51;47.04
4410;BME280;2218;51.408;7.208;2023-04-01T02:39:00;97481.25;;;19.52;47.09
4410;BME280;2218;51.408;7.208;2023-04-01T02:41:30;97486.53;;;19.52;46.96
4410;BME280;2218;51.408;7.208;2023-04-01T02:43:57;97483.91;;;19.52;47.19
4410;BME280;2218;51.408;7.208;2023-04-01T02:46:25;97481.25;;;19.52;46.96
4410;BME280;2218;51.408;7.208;2023-04-01T02:48:51;97482.91;;;19.53;46.87
4410;BME280;2218;51.408;7.208;2023-04-01T02:51:19;97488.19;;;19.53;47.09
4410;BME280;2218;51.408;7.208;2023-04-01T02:53:46;97495.25;;;19.52;46.91
4410;BME280;2218;51.408;7.208;2023-04-01T02:56:14;97497.06;;;19.52;47.04
4410;BME280;2218;51.408;7.208;2023-04-01T02:58:41;97496.91;;;19.53;47.14
4410;BME280;2218;51.408;7.208;2023-04-01T03:01:08;97508.44;;;19.52;46.85
4410;BME280;2218;51.408;7.208;2023-04-01T03:03:35;97499.53;;;19.53;47.07
4410;BME280;2218;51.408;7.208;2023-04-01T03:06:05;97504.81;;;19.53;47.08
4410;BME280;2218;51.408;7.208;2023-04-01T03:08:32;97496.91;;;19.53;47.03
4410;BME280;2218;51.408;7.208;2023-04-01T03:10:59;97503.00;;;19.54;47.17
4410;BME280;2218;51.408;7.208;2023-04-01T03:13:28;97499.53;;;19.53;47.12
4410;BME280;2218;51.408;7.208;2023-04-01T03:15:55;97500.34;;;19.54;47.05
4410;BME280;2218;51.408;7.208;2023-04-01T03:18:22;97500.34;;;19.54;47.09
4410;BME280;2218;51.408;7.208;2023-04-01T03:20:49;97503.84;;;19.54;46.82
4410;BME280;2218;51.408;7.208;2023-04-01T03:23:16;97500.34;;;19.54;46.84
4410;BME280;2218;51.408;7.208;2023-04-01T03:25:45;97505.63;;;19.54;47.08
4410;BME280;2218;51.408;7.208;2023-04-01T03:28:12;97506.47;;;19.54;47.05
4410;BME280;2218;51.408;7.208;2023-04-01T03:30:41;97512.56;;;19.55;47.08
4410;BME280;2218;51.408;7.208;2023-04-01T03:33:08;97513.38;;;19.55;47.15
4410;BME280;2218;51.408;7.208;2023-04-01T03:35:35;97514.38;;;19.54;47.13
4410;BME280;2218;51.408;7.208;2023-04-01T03:38:02;97517.84;;;19.55;47.18
4410;BME280;2218;51.408;7.208;2023-04-01T03:40:29;97515.19;;;19.55;46.96
4410;BME280;2218;51.408;7.208;2023-04-01T03:42:58;97517.84;;;19.55;47.18
4410;BME280;2218;51.408;7.208;2023-04-01T03:45:25;97523.94;;;19.55;47.11
4410;BME280;2218;51.408;7.208;2023-04-01T03:47:54;97517.84;;;19.55;47.02
4410;BME280;2218;51.408;7.208;2023-04-01T03:50:21;97523.94;;;19.55;46.96
4410;BME280;2218;51.408;7.208;2023-04-01T03:52:48;97532.66;;;19.56;46.95
4410;BME280;2218;51.408;7.208;2023-04-01T03:55:15;97523.94;;;19.55;46.99
4410;BME280;2218;51.408;7.208;2023-04-01T03:57:44;97524.75;;;19.56;47.03
4410;BME280;2218;51.408;7.208;2023-04-01T04:00:17;97523.94;;;19.55;47.10
4410;BME280;2218;51.408;7.208;2023-04-01T04:02:49;97530.00;;;19.56;47.02
4410;BME280;2218;51.408;7.208;2023-04-01T04:05:22;97524.75;;;19.56;46.96
4410;BME280;2218;51.408;7.208;2023-04-01T04:07:51;97537.91;;;19.56;46.93
4410;BME280;2218;51.408;7.208;2023-04-01T04:10:19;97528.19;;;19.56;46.83
4410;BME280;2218;51.408;7.208;2023-04-01T04:12:49;97541.38;;;19.56;46.83
4410;BME280;2218;51.408;7.208;2023-04-01T04:15:17;97536.94;;;19.57;47.01
4410;BME280;2218;51.408;7.208;2023-04-01T04:17:44;97535.28;;;19.56;47.03
4410;BME280;2218;51.408;7.208;2023-04-01T04:20:13;97538.75;;;19.56;46.90
4410;BME280;2218;51.408;7.208;2023-04-01T04:22:42;97537.91;;;19.56;47.09
4410;BME280;2218;51.408;7.208;2023-04-01T04:25:09;97541.38;;;19.56;46.97
4410;BME280;2218;51.408;7.208;2023-04-01T04:27:37;97541.38;;;19.56;46.95
4410;BME280;2218;51.408;7.208;2023-04-01T04:30:10;97542.19;;;19.57;47.12
4410;BME280;2218;51.408;7.208;2023-04-01T04:32:37;97539.56;;;19.57;47.11
4410;BME280;2218;51.408;7.208;2023-04-01T04:35:05;97547.47;;;19.57;47.16
4410;BME280;2218;51.408;7.208;2023-04-01T04:37:33;97541.38;;;19.56;47.11
4410;BME280;2218;51.408;7.208;2023-04-01T04:40:02;97544.00;;;19.56;47.04
4410;BME280;2218;51.408;7.208;2023-04-01T04:42:30;97547.47;;;19.57;47.09
4410;BME280;2218;51.408;7.208;2023-04-01T04:45:06;97547.28;;;19.58;47.06
4410;BME280;2218;51.408;7.208;2023-04-01T04:47:34;97543.84;;;19.58;47.11
4410;BME280;2218;51.408;7.208;2023-04-01T04:50:01;97548.28;;;19.57;47.13
4410;BME280;2218;51.408;7.208;2023-04-01T04:52:28;97550.09;;;19.57;47.31
4410;BME280;2218;51.408;7.208;2023-04-01T04:54:55;97558.00;;;19.57;46.95
4410;BME280;2218;51.408;7.208;2023-04-01T04:57:23;97542.19;;;19.57;47.16
4410;BME280;2218;51.408;7.208;2023-04-01T04:59:54;97549.09;;;19.58;47.04
4410;BME280;2218;51.408;7.208;2023-04-01T05:02:53;97559.66;;;19.58;47.22
4410;BME280;2218;51.408;7.208;2023-04-01T05:05:21;97558.00;;;19.57;46.98
4410;BME280;2218;51.408;7.208;2023-04-01T05:07:48;97563.28;;;19.57;47.05
4410;BME280;2218;51.408;7.208;2023-04-01T05:10:15;97558.81;;;19.57;47.09
4410;BME280;2218;51.408;7.208;2023-04-01T05:12:43;97564.91;;;19.58;47.18
4410;BME280;2218;51.408;7.208;2023-04-01T05:15:15;97560.47;;;19.58;47.16
4410;BME280;2218;51.408;7.208;2023-04-01T05:17:42;97555.38;;;19.57;47.06
4410;BME280;2218;51.408;7.208;2023-04-01T05:20:12;97564.91;;;19.58;47.25
4410;BME280;2218;51.408;7.208;2023-04-01T05:22:39;97560.63;;;19.57;47.02
4410;BME280;2218;51.408;7.208;2023-04-01T05:25:07;97563.09;;;19.58;47.26
4410;BME280;2218;51.408;7.208;2023-04-01T05:27:34;97560.47;;;19.58;47.10
4410;BME280;2218;51.408;7.208;2023-04-01T05:30:03;97572.72;;;19.59;46.94
4410;BME280;2218;51.408;7.208;2023-04-01T05:32:41;97567.56;;;19.58;47.10
4410;BME280;2218;51.408;7.208;2023-04-01T05:35:09;97570.19;;;19.58;47.05
4410;BME280;2218;51.408;7.208;2023-04-01T05:37:36;97566.56;;;19.59;47.03
4410;BME280;2218;51.408;7.208;2023-04-01T05:40:07;97579.72;;;19.59;47.28
4410;BME280;2218;51.408;7.208;2023-04-01T05:42:35;97577.09;;;19.59;47.20
4410;BME280;2218;51.408;7.208;2023-04-01T05:45:05;97575.34;;;19.59;47.15
4410;BME280;2218;51.408;7.208;2023-04-01T05:47:52;97583.25;;;19.59;47.07
4410;BME280;2218;51.408;7.208;2023-04-01T05:50:19;97583.25;;;19.59;47.17
4410;BME280;2218;51.408;7.208;2023-04-01T05:52:46;97582.38;;;19.59;47.26
4410;BME280;2218;51.408;7.208;2023-04-01T05:55:13;97589.34;;;19.60;47.23
4410;BME280;2218;51.408;7.208;2023-04-01T05:57:40;97577.09;;;19.59;47.05
4410;BME280;2218;51.408;7.208;2023-04-01T06:00:11;97584.06;;;19.60;47.16
4410;BME280;2218;51.408;7.208;2023-04-01T06:02:38;97589.34;;;19.60;47.13
4410;BME280;2218;51.408;7.208;2023-04-01T06:05:18;97588.50;;;19.59;47.26
4410;BME280;2218;51.408;7.208;2023-04-01T06:07:45;97592.91;;;19.59;47.36
4410;BME280;2218;51.408;7.208;2023-04-01T06:10:15;97589.34;;;19.60;47.20
4410;BME280;2218;51.408;7.208;2023-04-01T06:12:57;97599.06;;;19.59;47.35
4410;BME280;2218;51.408;7.208;2023-04-01T06:15:38;97597.25;;;19.60;47.32
4410;BME280;2218;51.408;7.208;2023-04-01T06:18:41;97597.25;;;19.60;47.27
4410;BME280;2218;51.408;7.208;2023-04-01T06:21:55;97594.59;;;19.60;47.34
4410;BME280;2218;51.408;7.208;2023-04-01T06:25:00;97603.44;;;19.59;47.13
4410;BME280;2218;51.408;7.208;2023-04-01T06:27:54;97603.34;;;19.60;47.14
4410;BME280;2218;51.408;7.208;2023-04-01T06:30:37;97605.16;;;19.60;47.24
4410;BME280;2218;51.408;7.208;2023-04-01T06:33:29;97605.16;;;19.60;47.19
4410;BME280;2218;51.408;7.208;2023-04-01T06:36:23;97606.78;;;19.61;47.26
4410;BME280;2218;51.408;7.208;2023-04-01T06:39:10;97603.34;;;19.60;47.25
4410;BME280;2218;51.408;7.208;2023-04-01T06:42:30;97611.25;;;19.60;47.09
4410;BME280;2218;51.408;7.208;2023-04-01T06:45:24;97605.16;;;19.60;47.23
4410;BME280;2218;51.408;7.208;2023-04-01T06:48:34;97624.25;;;19.62;47.11
4410;BME280;2218;51.408;7.208;2023-04-01T06:51:47;97616.50;;;19.60;47.23
4410;BME280;2218;51.408;7.208;2023-04-01T06:54:44;97617.34;;;19.61;47.00
4410;BME280;2218;51.408;7.208;2023-04-01T06:57:38;97620.97;;;19.60;47.16
4410;BME280;2218;51.408;7.208;2023-04-01T07:00:14;97622.59;;;19.61;47.07
4410;BME280;2218;51.408;7.208;2023-04-01T07:02:48;97622.59;;;19.61;47.14
4410;BME280;2218;51.408;7.208;2023-04-01T07:05:22;97628.69;;;19.61;47.21
4410;BME280;2218;51.408;7.208;2023-04-01T07:07:54;97625.22;;;19.61;47.28
4410;BME280;2218;51.408;7.208;2023-04-01T07:10:35;97623.59;;;19.60;47.27
4410;BME280;2218;51.408;7.208;2023-04-01T07:13:34;97624.41;;;19.60;47.27
4410;BME280;2218;51.408;7.208;2023-04-01T07:16:19;97630.50;;;19.61;47.23
4410;BME280;2218;51.408;7.208;2023-04-01T07:18:52;97630.50;;;19.61;47.17
4410;BME280;2218;51.408;7.208;2023-04-01T07:21:31;97630.50;;;19.61;47.22
4410;BME280;2218;51.408;7.208;2023-04-01T07:24:06;97631.31;;;19.61;47.14
4410;BME280;2218;51.408;7.208;2023-04-01T07:26:52;97633.97;;;19.61;47.29
4410;BME280;2218;51.408;7.208;2023-04-01T07:29:25;97642.69;;;19.62;47.17
4410;BME280;2218;51.408;7.208;2023-04-01T07:32:20;97649.59;;;19.63;47.18
4410;BME280;2218;51.408;7.208;2023-04-01T07:35:07;97652.22;;;19.63;47.23
4410;BME280;2218;51.408;7.208;2023-04-01T07:37:50;97646.31;;;19.61;46.78
4410;BME280;2218;51.408;7.208;2023-04-01T07:40:30;97650.59;;;19.62;47.23
4410;BME280;2218;51.408;7.208;2023-04-01T07:43:33;97656.69;;;19.62;47.18
4410;BME280;2218;51.408;7.208;2023-04-01T07:46:47;97663.75;;;19.62;47.29
4410;BME280;2218;51.408;7.208;2023-04-01T07:49:24;97658.50;;;19.62;47.23
4410;BME280;2218;51.408;7.208;2023-04-01T07:52:01;97668.03;;;19.63;47.13
4410;BME280;2218;51.408;7.208;2023-04-01T07:54:42;97662.94;;;19.61;47.32
4410;BME280;2218;51.408;7.208;2023-04-01T07:57:16;97662.78;;;19.63;47.25
4410;BME280;2218;51.408;7.208;2023-04-01T07:59:59;97668.03;;;19.63;47.21
4410;BME280;2218;51.408;7.208;2023-04-01T08:03:17;97672.50;;;19.62;47.40
4410;BME280;2218;51.408;7.208;2023-04-01T08:05:55;97675.94;;;19.63;47.29
4410;BME280;2218;51.408;7.208;2023-04-01T08:08:39;97671.50;;;19.63;47.21
4410;BME280;2218;51.408;7.208;2023-04-01T08:11:54;97672.31;;;19.64;47.41
4410;BME280;2218;51.408;7.208;2023-04-01T08:14:55;97682.88;;;19.64;47.28
4410;BME280;2218;51.408;7.208;2023-04-01T08:17:43;97678.59;;;19.63;47.39
4410;BME280;2218;51.408;7.208;2023-04-01T08:20:32;97689.94;;;19.63;47.30
4410;BME280;2218;51.408;7.208;2023-04-01T08:23:11;97694.41;;;19.63;47.21
4410;BME280;2218;51.408;7.208;2023-04-01T08:25:49;97694.41;;;19.63;47.33
4410;BME280;2218;51.408;7.208;2023-04-01T08:28:27;97697.03;;;19.63;47.42
4410;BME280;2218;51.408;7.208;2023-04-01T08:31:04;97704.09;;;19.62;47.20
4410;BME280;2218;51.408;7.208;2023-04-01T08:33:33;97701.47;;;19.62;47.43
4410;BME280;2218;51.408;7.208;2023-04-01T08:36:09;97704.09;;;19.62;47.33
4410;BME280;2218;51.408;7.208;2023-04-01T08:38:43;97708.56;;;19.62;47.57
4410;BME280;2218;51.408;7.208;2023-04-01T08:41:45;97711.03;;;19.63;47.41
4410;BME280;2218;51.408;7.208;2023-04-01T08:45:10;97719.09;;;19.62;47.33
4410;BME280;2218;51.408;7.208;2023-04-01T08:48:08;97713.81;;;19.62;47.38
4410;BME280;2218;51.408;7.208;2023-04-01T08:57:46;97722.72;;;19.61;47.63
4410;BME280;2218;51.408;7.208;2023-04-01T09:00:49;97734.09;;;19.61;47.31
4410;BME280;2218;51.408;7.208;2023-04-01T09:03:43;97734.91;;;19.62;47.42
4410;BME280;2218;51.408;7.208;2023-04-01T09:06:33;97745.44;;;19.62;47.43
4410;BME280;2218;51.408;7.208;2023-04-01T09:10:02;97741.81;;;19.63;47.69
4410;BME280;2218;51.408;7.208;2023-04-01T09:12:55;97734.91;;;19.62;47.49
4410;BME280;2218;51.408;7.208;2023-04-01T09:16:02;97740.16;;;19.62;47.35
4410;BME280;2218;51.408;7.208;2023-04-01T09:18:59;97746.25;;;19.62;47.56
4410;BME280;2218;51.408;7.208;2023-04-01T09:21:58;97751.53;;;19.62;47.43
4410;BME280;2218;51.408;7.208;2023-04-01T09:25:08;97757.63;;;19.63;47.68
4410;BME280;2218;51.408;7.208;2023-04-01T09:27:48;97757.63;;;19.63;47.53
4410;BME280;2218;51.408;7.208;2023-04-01T09:34:15;97767.34;;;19.62;47.55
4410;BME280;2218;51.408;7.208;2023-04-01T09:37:18;97769.97;;;19.62;47.66
4410;BME280;2218;51.408;7.208;2023-04-01T09:40:08;97772.63;;;19.62;47.45
4410;BME280;2218;51.408;7.208;2023-04-01T09:42:53;97774.44;;;19.62;47.49
4410;BME280;2218;51.408;7.208;2023-04-01T09:45:41;97779.69;;;19.62;47.97
4410;BME280;2218;51.408;7.208;2023-04-01T09:48:39;97789.25;;;19.63;47.45
4410;BME280;2218;51.408;7.208;2023-04-01T09:51:26;97786.59;;;19.63;47.50
4410;BME280;2218;51.408;7.208;2023-04-01T09:54:13;97782.31;;;19.62;47.66
4410;BME280;2218;51.408;7.208;2023-04-01T09:57:22;97796.31;;;19.62;47.63
4410;BME280;2218;51.408;7.208;2023-04-01T10:00:43;97793.69;;;19.62;47.67
4410;BME280;2218;51.408;7.208;2023-04-01T10:04:12;97798.97;;;19.62;47.67
4410;BME280;2218;51.408;7.208;2023-04-01T10:10:36;97801.44;;;19.64;47.49
4410;BME280;2218;51.408;7.208;2023-04-01T10:17:08;97806.69;;;19.64;47.57
4410;BME280;2218;51.408;7.208;2023-04-01T10:20:21;97806.69;;;19.64;47.56
4410;BME280;2218;51.408;7.208;2023-04-01T10:23:13;97811.97;;;19.64;48.01
4410;BME280;2218;51.408;7.208;2023-04-01T10:26:30;97809.34;;;19.64;47.73
4410;BME280;2218;51.408;7.208;2023-04-01T10:29:49;97818.22;;;19.63;47.63
4410;BME280;2218;51.408;7.208;2023-04-01T10:33:08;97816.41;;;19.63;47.56
4410;BME280;2218;51.408;7.208;2023-04-01T10:36:33;97822.50;;;19.64;47.85
4410;BME280;2218;51.408;7.208;2023-04-01T10:43:49;97826.13;;;19.63;47.75
4410;BME280;2218;51.408;7.208;2023-04-01T10:47:01;97828.63;;;19.65;47.83
4410;BME280;2218;51.408;7.208;2023-04-01T10:49:47;97827.78;;;19.64;47.65
4410;BME280;2218;51.408;7.208;2023-04-01T10:53:11;97823.38;;;19.65;47.72
4410;BME280;2218;51.408;7.208;2023-04-01T10:56:42;97826.81;;;19.65;47.93
4410;BME280;2218;51.408;7.208;2023-04-01T10:59:58;97828.63;;;19.65;47.98
4410;BME280;2218;51.408;7.208;2023-04-01T11:03:28;97823.50;;;19.63;47.95
4410;BME280;2218;51.408;7.208;2023-04-01T11:10:25;97840.00;;;19.65;47.81
4410;BME280;2218;51.408;7.208;2023-04-01T11:13:45;97837.50;;;19.63;48.00
4410;BME280;2218;51.408;7.208;2023-04-01T11:17:07;97837.38;;;19.65;48.02
4410;BME280;2218;51.408;7.208;2023-04-01T11:20:22;97838.31;;;19.64;47.95
4410;BME280;2218;51.408;7.208;2023-04-01T11:23:14;97853.31;;;19.63;47.83
4410;BME280;2218;51.408;7.208;2023-04-01T11:26:02;97851.66;;;19.62;48.05
4410;BME280;2218;51.408;7.208;2023-04-01T11:29:36;97850.69;;;19.63;47.87
4410;BME280;2218;51.408;7.208;2023-04-01T11:32:34;97853.31;;;19.63;47.85
4410;BME280;2218;51.408;7.208;2023-04-01T11:35:42;97859.56;;;19.62;48.30
4410;BME280;2218;51.408;7.208;2023-04-01T11:38:32;97870.94;;;19.63;47.98
4410;BME280;2218;51.408;7.208;2023-04-01T11:41:35;97874.38;;;19.63;48.03
4410;BME280;2218;51.408;7.208;2023-04-01T11:44:34;97877.84;;;19.64;47.96
4410;BME280;2218;51.408;7.208;2023-04-01T11:50:36;97884.09;;;19.63;47.94
4410;BME280;2218;51.408;7.208;2023-04-01T11:53:24;97889.38;;;19.63;47.89
4410;BME280;2218;51.408;7.208;2023-04-01T11:56:26;97897.97;;;19.65;47.97
4410;BME280;2218;51.408;7.208;2023-04-01T11:59:44;97896.28;;;19.64;47.96
4410;BME280;2218;51.408;7.208;2023-04-01T12:02:28;97904.19;;;19.64;48.24
4410;BME280;2218;51.408;7.208;2023-04-01T12:05:15;97906.84;;;19.64;48.12
4410;BME280;2218;51.408;7.208;2023-04-01T12:08:27;97907.69;;;19.65;48.10
4410;BME280;2218;51.408;7.208;2023-04-01T12:11:07;97909.47;;;19.64;47.98
4410;BME280;2218;51.408;7.208;2023-04-01T12:13:50;97906.84;;;19.64;47.97
4410;BME280;2218;51.408;7.208;2023-04-01T12:16:42;97911.16;;;19.65;48.15
4410;BME280;2218;51.408;7.208;2023-04-01T12:19:26;97919.06;;;19.65;48.10
4410;BME280;2218;51.408;7.208;2023-04-01T12:22:19;97923.50;;;19.65;48.09
4410;BME280;2218;51.408;7.208;2023-04-01T12:24:58;97922.66;;;19.64;48.11
4410;BME280;2218;51.408;7.208;2023-04-01T12:27:42;97929.59;;;19.65;48.35
4410;BME280;2218;51.408;7.208;2023-04-01T12:33:39;97934.16;;;19.63;48.30
4410;BME280;2218;51.408;7.208;2023-04-01T12:36:26;97933.19;;;19.64;48.03
4410;BME280;2218;51.408;7.208;2023-04-01T12:42:27;97938.44;;;19.64;48.04
4410;BME280;2218;51.408;7.208;2023-04-01T12:45:22;97945.53;;;19.63;47.86
4410;BME280;2218;51.408;7.208;2023-04-01T12:48:16;97945.41;;;19.65;48.19
4410;BME280;2218;51.408;7.208;2023-04-01T12:51:26;97944.59;;;19.65;48.18
4410;BME280;2218;51.408;7.208;2023-04-01T12:54:41;97951.50;;;19.66;48.04
4410;BME280;2218;51.408;7.208;2023-04-01T13:00:48;97959.41;;;19.66;48.16
4410;BME280;2218;51.408;7.208;2023-04-01T13:03:43;97962.03;;;19.66;48.33
4410;BME280;2218;51.408;7.208;2023-04-01T13:06:42;97968.13;;;19.66;48.03
4410;BME280;2218;51.408;7.208;2023-04-01T13:09:25;97973.41;;;19.66;48.16
4410;BME280;2218;51.408;7.208;2023-04-01T13:12:39;97973.41;;;19.66;48.26
4410;BME280;2218;51.408;7.208;2023-04-01T13:15:26;97972.59;;;19.66;48.41
4410;BME280;2218;51.408;7.208;2023-04-01T13:18:07;97971.59;;;19.67;48.29
4410;BME280;2218;51.408;7.208;2023-04-01T13:20:47;97986.59;;;19.66;48.20
4410;BME280;2218;51.408;7.208;2023-04-01T13:23:33;97987.41;;;19.67;48.19
4410;BME280;2218;51.408;7.208;2023-04-01T13:26:13;97997.13;;;19.66;48.27
4410;BME280;2218;51.408;7.208;2023-04-01T13:28:52;97990.19;;;19.65;48.40
4410;BME280;2218;51.408;7.208;2023-04-01T13:31:47;98001.56;;;19.66;48.35
4410;BME280;2218;51.408;7.208;2023-04-01T13:34:37;97992.84;;;19.65;48.23
4410;BME280;2218;51.408;7.208;2023-04-01T13:37:21;98000.75;;;19.65;48.48
4410;BME280;2218;51.408;7.208;2023-04-01T13:40:17;97996.44;;;19.64;48.38
4410;BME280;2218;51.408;7.208;2023-04-01T13:42:54;98001.69;;;19.64;48.54
4410;BME280;2218;51.408;7.208;2023-04-01T13:45:26;98013.09;;;19.65;48.53
4410;BME280;2218;51.408;7.208;2023-04-01T13:48:27;98006.13;;;19.63;48.45
4410;BME280;2218;51.408;7.208;2023-04-01T13:51:51;98017.50;;;19.64;48.45
4410;BME280;2218;51.408;7.208;2023-04-01T13:55:01;98009.59;;;19.64;48.34
4410;BME280;2218;51.408;7.208;2023-04-01T13:57:52;98014.88;;;19.64;48.40
4410;BME280;2218;51.408;7.208;2023-04-01T14:00:40;98025.56;;;19.62;48.47
4410;BME280;2218;51.408;7.208;2023-04-01T14:03:30;98021.13;;;19.63;48.41
4410;BME280;2218;51.408;7.208;2023-04-01T14:06:23;98025.56;;;19.62;48.46
4410;BME280;2218;51.408;7.208;2023-04-01T14:12:04;98033.47;;;19.62;48.37
4410;BME280;2218;51.408;7.208;2023-04-01T14:14:47;98029.19;;;19.61;48.42
4410;BME280;2218;51.408;7.208;2023-04-01T14:17:42;98045.81;;;19.62;48.51
4410;BME280;2218;51.408;7.208;2023-04-01T14:20:26;98041.38;;;19.62;48.50
4410;BME280;2218;51.408;7.208;2023-04-01T14:23:13;98045.81;;;19.62;48.55
4410;BME280;2218;51.408;7.208;2023-04-01T14:26:12;98055.53;;;19.61;48.55
4410;BME280;2218;51.408;7.208;2023-04-01T14:28:54;98050.28;;;19.61;48.45
4410;BME280;2218;51.408;7.208;2023-04-01T14:31:48;98060.81;;;19.61;48.64
4410;BME280;2218;51.408;7.208;2023-04-01T14:34:36;98058.19;;;19.61;48.53
4410;BME280;2218;51.408;7.208;2023-04-01T14:37:35;98062.63;;;19.61;48.55
4410;BME280;2218;51.408;7.208;2023-04-01T14:40:28;98059.97;;;19.61;48.51
4410;BME280;2218;51.408;7.208;2023-04-01T14:43:28;98060.81;;;19.61;48.43
4410;BME280;2218;51.408;7.208;2023-04-01T14:49:35;98062.78;;;19.59;48.58
4410;BME280;2218;51.408;7.208;2023-04-01T14:52:11;98068.88;;;19.60;48.49
4410;BME280;2218;51.408;7.208;2023-04-01T14:54:44;98065.41;;;19.59;48.55
4410;BME280;2218;51.408;7.208;2023-04-01T14:57:14;98077.69;;;19.59;48.69
4410;BME280;2218;51.408;7.208;2023-04-01T14:59:49;98082.06;;;19.60;48.57
4410;BME280;2218;51.408;7.208;2023-04-01T15:02:35;98079.41;;;19.60;48.39
4410;BME280;2218;51.408;7.208;2023-04-01T15:05:19;98087.31;;;19.60;48.64
4410;BME280;2218;51.408;7.208;2023-04-01T15:08:17;98094.41;;;19.59;48.70
4410;BME280;2218;51.408;7.208;2023-04-01T15:14:28;98100.50;;;19.60;48.62
4410;BME280;2218;51.408;7.208;2023-04-01T15:17:24;98095.22;;;19.60;48.77
4410;BME280;2218;51.408;7.208;2023-04-01T15:20:18;98105.75;;;19.60;48.66
4410;BME280;2218;51.408;7.208;2023-04-01T15:23:07;98098.78;;;19.59;48.69
4410;BME280;2218;51.408;7.208;2023-04-01T15:25:57;98110.22;;;19.59;48.49
4410;BME280;2218;51.408;7.208;2023-04-01T15:28:37;98106.84;;;19.57;48.65
4410;BME280;2218;51.408;7.208;2023-04-01T15:31:12;98115.56;;;19.58;48.76
4410;BME280;2218;51.408;7.208;2023-04-01T15:34:02;98123.47;;;19.58;48.81
4410;BME280;2218;51.408;7.208;2023-04-01T15:36:43;98125.13;;;19.59;48.80